sensor_id;sensor_type;location;lat;lon;timestamp;P1;durP1;ratioP1;P2;durP2;ratioP2
11854;SDS011;5987;53.140;8.904;2023-06-10T00:02:33;6.77;;;3.40;;
11854;SDS011;5987;53.140;8.904;2023-06-10T00:05:38;8.87;;;4.13;;
11854;SDS011;5987;53.140;8.904;2023-06-10T00:08:42;12.50;;;4.63;;
11854;SDS011;5987;53.140;8.904;2023-06-10T00:11:48;8.83;;;4.30;;
11854;SDS011;5987;53.140;8.904;2023-06-10T00:14:52;9.07;;;3.57;;
11854;SDS011;5987;53.140;8.904;2023-06-10T00:17:56;8.83;;;4.03;;
11854;SDS011;5987;53.140;8.904;2023-06-10T00:21:01;6.17;;;4.27;;
11854;SDS011;5987;53.140;8.904;2023-06-10T00:24:06;8.80;;;4.10;;
11854;SDS011;5987;53.140;8.904;2023-06-10T00:27:14;12.97;;;4.33;;
11854;SDS011;5987;53.140;8.904;2023-06-10T00:30:17;9.87;;;4.47;;
11854;SDS011;5987;53.140;8.904;2023-06-10T00:33:21;10.40;;;4.40;;
11854;SDS011;5987;53.140;8.904;2023-06-10T00:36:26;7.30;;;3.87;;
11854;SDS011;5987;53.140;8.904;2023-06-10T00:39:29;11.47;;;4.10;;
11854;SDS011;5987;53.140;8.904;2023-06-10T00:42:33;7.93;;;3.83;;
11854;SDS011;5987;53.140;8.904;2023-06-10T00:45:37;12.23;;;4.57;;
11854;SDS011;5987;53.140;8.904;2023-06-10T00:48:41;6.60;;;3.90;;
11854;SDS011;5987;53.140;8.904;2023-06-10T00:51:47;6.90;;;4.23;;
11854;SDS011;5987;53.140;8.904;2023-06-10T00:54:52;8.57;;;4.47;;
11854;SDS011;5987;53.140;8.904;2023-06-10T00:57:56;10.90;;;4.60;;
11854;SDS011;5987;53.140;8.904;2023-06-10T01:00:59;7.97;;;4.23;;
11854;SDS011;5987;53.140;8.904;2023-06-10T01:04:03;10.23;;;4.40;;
11854;SDS011;5987;53.140;8.904;2023-06-10T01:07:10;9.23;;;4.53;;
11854;SDS011;5987;53.140;8.904;2023-06-10T01:10:22;12.17;;;4.43;;
11854;SDS011;5987;53.140;8.904;2023-06-10T01:13:35;9.80;;;4.80;;
11854;SDS011;5987;53.140;8.904;2023-06-10T01:16:43;11.33;;;5.50;;
11854;SDS011;5987;53.140;8.904;2023-06-10T01:19:52;12.27;;;4.77;;
11854;SDS011;5987;53.140;8.904;2023-06-10T01:22:59;8.47;;;5.10;;
11854;SDS011;5987;53.140;8.904;2023-06-10T01:26:06;11.30;;;4.90;;
11854;SDS011;5987;53.140;8.904;2023-06-10T01:29:14;13.67;;;4.97;;
11854;SDS011;5987;53.140;8.904;2023-06-10T01:32:26;8.93;;;4.80;;
11854;SDS011;5987;53.140;8.904;2023-06-10T01:35:36;11.30;;;5.50;;
11854;SDS011;5987;53.140;8.904;2023-06-10T01:38:44;11.13;;;5.00;;
11854;SDS011;5987;53.140;8.904;2023-06-10T01:41:49;10.43;;;4.93;;
11854;SDS011;5987;53.140;8.904;2023-06-10T01:44:55;10.73;;;4.93;;
11854;SDS011;5987;53.140;8.904;2023-06-10T01:47:58;10.03;;;4.97;;
11854;SDS011;5987;53.140;8.904;2023-06-10T01:51:02;11.90;;;5.10;;
11854;SDS011;5987;53.140;8.904;2023-06-10T01:54:08;11.90;;;5.43;;
11854;SDS011;5987;53.140;8.904;2023-06-10T01:57:11;11.50;;;5.47;;
11854;SDS011;5987;53.140;8.904;2023-06-10T02:00:15;8.43;;;4.53;;
11854;SDS011;5987;53.140;8.904;2023-06-10T02:03:19;11.10;;;5.00;;
11854;SDS011;5987;53.140;8.904;2023-06-10T02:06:23;12.10;;;5.17;;
11854;SDS011;5987;53.140;8.904;2023-06-10T02:09:28;14.63;;;5.60;;
11854;SDS011;5987;53.140;8.904;2023-06-10T02:12:32;8.83;;;4.80;;
11854;SDS011;5987;53.140;8.904;2023-06-10T02:15:35;15.63;;;5.80;;
11854;SDS011;5987;53.140;8.904;2023-06-10T02:18:39;12.13;;;5.53;;
11854;SDS011;5987;53.140;8.904;2023-06-10T02:21:45;11.47;;;5.00;;
11854;SDS011;5987;53.140;8.904;2023-06-10T02:24:49;12.53;;;5.70;;
11854;SDS011;5987;53.140;8.904;2023-06-10T02:27:53;9.87;;;5.60;;
11854;SDS011;5987;53.140;8.904;2023-06-10T02:30:57;15.23;;;7.27;;
11854;SDS011;5987;53.140;8.904;2023-06-10T02:34:01;9.57;;;6.03;;
11854;SDS011;5987;53.140;8.904;2023-06-10T02:37:05;12.30;;;5.87;;
11854;SDS011;5987;53.140;8.904;2023-06-10T02:40:11;10.17;;;5.70;;
11854;SDS011;5987;53.140;8.904;2023-06-10T02:43:15;12.47;;;6.33;;
11854;SDS011;5987;53.140;8.904;2023-06-10T02:46:18;9.37;;;5.53;;
11854;SDS011;5987;53.140;8.904;2023-06-10T02:49:22;12.10;;;5.27;;
11854;SDS011;5987;53.140;8.904;2023-06-10T02:52:29;10.53;;;5.80;;
11854;SDS011;5987;53.140;8.904;2023-06-10T02:55:34;12.03;;;6.17;;
11854;SDS011;5987;53.140;8.904;2023-06-10T02:58:37;11.70;;;5.30;;
11854;SDS011;5987;53.140;8.904;2023-06-10T03:01:41;8.93;;;5.50;;
11854;SDS011;5987;53.140;8.904;2023-06-10T03:04:45;9.53;;;4.97;;
11854;SDS011;5987;53.140;8.904;2023-06-10T03:07:51;10.43;;;5.97;;
11854;SDS011;5987;53.140;8.904;2023-06-10T03:10:56;8.03;;;5.50;;
11854;SDS011;5987;53.140;8.904;2023-06-10T03:14:00;11.30;;;6.07;;
11854;SDS011;5987;53.140;8.904;2023-06-10T03:17:04;11.97;;;6.10;;
11854;SDS011;5987;53.140;8.904;2023-06-10T03:20:10;14.57;;;5.93;;
11854;SDS011;5987;53.140;8.904;2023-06-10T03:23:17;9.27;;;5.27;;
11854;SDS011;5987;53.140;8.904;2023-06-10T03:26:22;9.60;;;5.10;;
11854;SDS011;5987;53.140;8.904;2023-06-10T03:29:26;9.97;;;4.90;;
11854;SDS011;5987;53.140;8.904;2023-06-10T03:32:29;5.63;;;4.73;;
11854;SDS011;5987;53.140;8.904;2023-06-10T03:35:33;13.13;;;4.73;;
11854;SDS011;5987;53.140;8.904;2023-06-10T03:38:37;8.33;;;4.37;;
11854;SDS011;5987;53.140;8.904;2023-06-10T03:41:42;9.03;;;4.77;;
11854;SDS011;5987;53.140;8.904;2023-06-10T03:44:46;9.57;;;4.93;;
11854;SDS011;5987;53.140;8.904;2023-06-10T03:47:50;14.97;;;5.20;;
11854;SDS011;5987;53.140;8.904;2023-06-10T03:50:53;6.67;;;4.50;;
11854;SDS011;5987;53.140;8.904;2023-06-10T03:53:57;11.47;;;4.70;;
11854;SDS011;5987;53.140;8.904;2023-06-10T03:57:02;9.33;;;4.40;;
11854;SDS011;5987;53.140;8.904;2023-06-10T04:00:07;8.03;;;4.97;;
11854;SDS011;5987;53.140;8.904;2023-06-10T04:03:13;8.83;;;5.00;;
11854;SDS011;5987;53.140;8.904;2023-06-10T04:06:17;9.90;;;5.43;;
11854;SDS011;5987;53.140;8.904;2023-06-10T04:09:21;8.23;;;5.60;;
11854;SDS011;5987;53.140;8.904;2023-06-10T04:12:26;13.80;;;5.87;;
11854;SDS011;5987;53.140;8.904;2023-06-10T04:15:29;10.70;;;5.43;;
11854;SDS011;5987;53.140;8.904;2023-06-10T04:18:34;11.50;;;5.30;;
11854;SDS011;5987;53.140;8.904;2023-06-10T04:21:38;6.37;;;4.73;;
11854;SDS011;5987;53.140;8.904;2023-06-10T04:24:42;7.43;;;4.73;;
11854;SDS011;5987;53.140;8.904;2023-06-10T04:27:47;7.23;;;5.03;;
11854;SDS011;5987;53.140;8.904;2023-06-10T04:30:50;10.30;;;4.97;;
11854;SDS011;5987;53.140;8.904;2023-06-10T04:33:54;8.53;;;5.23;;
11854;SDS011;5987;53.140;8.904;2023-06-10T04:36:57;8.70;;;5.27;;
11854;SDS011;5987;53.140;8.904;2023-06-10T04:40:01;8.53;;;5.53;;
11854;SDS011;5987;53.140;8.904;2023-06-10T04:43:08;7.73;;;4.77;;
11854;SDS011;5987;53.140;8.904;2023-06-10T04:46:12;9.67;;;5.10;;
11854;SDS011;5987;53.140;8.904;2023-06-10T04:49:16;9.43;;;5.23;;
11854;SDS011;5987;53.140;8.904;2023-06-10T04:52:19;7.80;;;4.93;;
11854;SDS011;5987;53.140;8.904;2023-06-10T04:55:23;9.20;;;5.10;;
11854;SDS011;5987;53.140;8.904;2023-06-10T04:58:28;10.20;;;4.83;;
11854;SDS011;5987;53.140;8.904;2023-06-10T05:01:31;10.87;;;4.70;;
11854;SDS011;5987;53.140;8.904;2023-06-10T05:04:35;9.87;;;5.23;;
11854;SDS011;5987;53.140;8.904;2023-06-10T05:07:39;8.40;;;4.57;;
11854;SDS011;5987;53.140;8.904;2023-06-10T05:10:42;6.43;;;4.33;;
11854;SDS011;5987;53.140;8.904;2023-06-10T05:13:47;7.57;;;4.63;;
11854;SDS011;5987;53.140;8.904;2023-06-10T05:16:51;8.37;;;4.60;;
11854;SDS011;5987;53.140;8.904;2023-06-10T05:19:55;8.13;;;4.47;;
11854;SDS011;5987;53.140;8.904;2023-06-10T05:22:59;10.90;;;5.37;;
11854;SDS011;5987;53.140;8.904;2023-06-10T05:26:02;11.80;;;4.63;;
11854;SDS011;5987;53.140;8.904;2023-06-10T05:29:07;8.83;;;4.70;;
11854;SDS011;5987;53.140;8.904;2023-06-10T05:32:12;7.60;;;4.63;;
11854;SDS011;5987;53.140;8.904;2023-06-10T05:35:15;9.93;;;4.83;;
11854;SDS011;5987;53.140;8.904;2023-06-10T05:38:19;8.40;;;5.00;;
11854;SDS011;5987;53.140;8.904;2023-06-10T05:41:22;12.37;;;4.80;;
11854;SDS011;5987;53.140;8.904;2023-06-10T05:44:28;9.27;;;4.07;;
11854;SDS011;5987;53.140;8.904;2023-06-10T05:47:31;5.63;;;3.90;;
11854;SDS011;5987;53.140;8.904;2023-06-10T05:50:35;7.20;;;4.50;;
11854;SDS011;5987;53.140;8.904;2023-06-10T05:53:41;14.00;;;5.07;;
11854;SDS011;5987;53.140;8.904;2023-06-10T05:56:44;5.63;;;4.43;;
11854;SDS011;5987;53.140;8.904;2023-06-10T05:59:49;9.00;;;4.47;;
11854;SDS011;5987;53.140;8.904;2023-06-10T06:02:53;10.70;;;4.20;;
11854;SDS011;5987;53.140;8.904;2023-06-10T06:05:59;6.30;;;4.00;;
11854;SDS011;5987;53.140;8.904;2023-06-10T06:09:02;9.20;;;4.37;;
11854;SDS011;5987;53.140;8.904;2023-06-10T06:12:07;8.10;;;3.63;;
11854;SDS011;5987;53.140;8.904;2023-06-10T06:15:13;6.43;;;4.00;;
11854;SDS011;5987;53.140;8.904;2023-06-10T06:18:18;10.37;;;3.90;;
11854;SDS011;5987;53.140;8.904;2023-06-10T06:21:21;5.13;;;3.80;;
11854;SDS011;5987;53.140;8.904;2023-06-10T06:24:25;6.93;;;3.50;;
11854;SDS011;5987;53.140;8.904;2023-06-10T06:27:29;5.67;;;3.60;;
11854;SDS011;5987;53.140;8.904;2023-06-10T06:30:35;10.87;;;4.07;;
11854;SDS011;5987;53.140;8.904;2023-06-10T06:33:39;8.57;;;3.53;;
11854;SDS011;5987;53.140;8.904;2023-06-10T06:36:42;10.10;;;3.83;;
11854;SDS011;5987;53.140;8.904;2023-06-10T06:39:46;9.60;;;4.27;;
11854;SDS011;5987;53.140;8.904;2023-06-10T06:42:50;10.07;;;3.97;;
11854;SDS011;5987;53.140;8.904;2023-06-10T06:45:55;8.27;;;4.03;;
11854;SDS011;5987;53.140;8.904;2023-06-10T06:48:59;8.70;;;4.20;;
11854;SDS011;5987;53.140;8.904;2023-06-10T06:52:03;5.03;;;3.60;;
11854;SDS011;5987;53.140;8.904;2023-06-10T06:55:07;4.83;;;3.27;;
11854;SDS011;5987;53.140;8.904;2023-06-10T06:58:13;4.83;;;3.63;;
11854;SDS011;5987;53.140;8.904;2023-06-10T07:01:18;8.53;;;3.83;;
11854;SDS011;5987;53.140;8.904;2023-06-10T07:04:22;6.70;;;3.33;;
11854;SDS011;5987;53.140;8.904;2023-06-10T07:07:26;4.70;;;3.20;;
11854;SDS011;5987;53.140;8.904;2023-06-10T07:10:30;9.37;;;4.77;;
11854;SDS011;5987;53.140;8.904;2023-06-10T07:13:34;8.07;;;3.67;;
11854;SDS011;5987;53.140;8.904;2023-06-10T07:16:39;7.53;;;3.67;;
11854;SDS011;5987;53.140;8.904;2023-06-10T07:19:42;8.60;;;4.00;;
11854;SDS011;5987;53.140;8.904;2023-06-10T07:22:46;7.37;;;3.47;;
11854;SDS011;5987;53.140;8.904;2023-06-10T07:25:49;8.37;;;3.23;;
11854;SDS011;5987;53.140;8.904;2023-06-10T07:28:53;7.47;;;3.53;;
11854;SDS011;5987;53.140;8.904;2023-06-10T07:31:58;8.47;;;2.97;;
11854;SDS011;5987;53.140;8.904;2023-06-10T07:35:02;7.77;;;3.53;;
11854;SDS011;5987;53.140;8.904;2023-06-10T07:38:06;5.40;;;3.17;;
11854;SDS011;5987;53.140;8.904;2023-06-10T07:41:10;6.83;;;3.43;;
11854;SDS011;5987;53.140;8.904;2023-06-10T07:44:14;9.17;;;3.80;;
11854;SDS011;5987;53.140;8.904;2023-06-10T07:47:19;6.27;;;3.63;;
11854;SDS011;5987;53.140;8.904;2023-06-10T07:50:22;8.50;;;3.30;;
11854;SDS011;5987;53.140;8.904;2023-06-10T07:53:26;9.57;;;3.10;;
11854;SDS011;5987;53.140;8.904;2023-06-10T07:56:29;7.63;;;3.47;;
11854;SDS011;5987;53.140;8.904;2023-06-10T07:59:33;5.07;;;3.30;;
11854;SDS011;5987;53.140;8.904;2023-06-10T08:02:38;8.90;;;3.57;;
11854;SDS011;5987;53.140;8.904;2023-06-10T08:05:43;9.30;;;3.17;;
11854;SDS011;5987;53.140;8.904;2023-06-10T08:08:47;7.47;;;3.13;;
11854;SDS011;5987;53.140;8.904;2023-06-10T08:11:50;7.33;;;3.27;;
11854;SDS011;5987;53.140;8.904;2023-06-10T08:14:54;10.17;;;3.07;;
11854;SDS011;5987;53.140;8.904;2023-06-10T08:17:59;6.37;;;3.43;;
11854;SDS011;5987;53.140;8.904;2023-06-10T08:21:03;8.77;;;3.27;;
11854;SDS011;5987;53.140;8.904;2023-06-10T08:24:07;6.60;;;3.27;;
11854;SDS011;5987;53.140;8.904;2023-06-10T08:27:12;7.93;;;3.70;;
11854;SDS011;5987;53.140;8.904;2023-06-10T08:30:16;10.07;;;3.50;;
11854;SDS011;5987;53.140;8.904;2023-06-10T08:33:21;9.77;;;4.10;;
11854;SDS011;5987;53.140;8.904;2023-06-10T08:36:24;6.67;;;2.93;;
11854;SDS011;5987;53.140;8.904;2023-06-10T08:39:28;9.43;;;2.90;;
11854;SDS011;5987;53.140;8.904;2023-06-10T08:42:34;9.63;;;3.40;;
11854;SDS011;5987;53.140;8.904;2023-06-10T08:45:45;6.40;;;3.40;;
11854;SDS011;5987;53.140;8.904;2023-06-10T08:48:54;8.50;;;3.23;;
11854;SDS011;5987;53.140;8.904;2023-06-10T08:52:05;8.57;;;3.30;;
11854;SDS011;5987;53.140;8.904;2023-06-10T08:55:11;5.63;;;3.13;;
11854;SDS011;5987;53.140;8.904;2023-06-10T08:58:21;7.50;;;3.73;;
11854;SDS011;5987;53.140;8.904;2023-06-10T09:01:25;7.87;;;3.30;;
11854;SDS011;5987;53.140;8.904;2023-06-10T09:04:31;4.40;;;2.47;;
11854;SDS011;5987;53.140;8.904;2023-06-10T09:07:35;7.27;;;3.27;;
11854;SDS011;5987;53.140;8.904;2023-06-10T09:10:39;10.00;;;3.27;;
11854;SDS011;5987;53.140;8.904;2023-06-10T09:13:43;6.67;;;2.77;;
11854;SDS011;5987;53.140;8.904;2023-06-10T09:16:47;7.17;;;2.63;;
11854;SDS011;5987;53.140;8.904;2023-06-10T09:19:52;6.03;;;2.80;;
11854;SDS011;5987;53.140;8.904;2023-06-10T09:22:57;4.77;;;3.17;;
11854;SDS011;5987;53.140;8.904;2023-06-10T09:26:02;6.53;;;3.17;;
11854;SDS011;5987;53.140;8.904;2023-06-10T09:29:11;6.20;;;3.37;;
11854;SDS011;5987;53.140;8.904;2023-06-10T09:32:15;9.33;;;3.00;;
11854;SDS011;5987;53.140;8.904;2023-06-10T09:35:22;6.73;;;3.07;;
11854;SDS011;5987;53.140;8.904;2023-06-10T09:38:29;5.90;;;2.50;;
11854;SDS011;5987;53.140;8.904;2023-06-10T09:41:34;8.93;;;3.10;;
11854;SDS011;5987;53.140;8.904;2023-06-10T09:44:38;7.13;;;2.83;;
11854;SDS011;5987;53.140;8.904;2023-06-10T09:47:42;7.13;;;2.93;;
11854;SDS011;5987;53.140;8.904;2023-06-10T09:50:51;5.33;;;2.90;;
11854;SDS011;5987;53.140;8.904;2023-06-10T09:53:54;6.50;;;2.70;;
11854;SDS011;5987;53.140;8.904;2023-06-10T09:57:00;7.13;;;2.80;;
11854;SDS011;5987;53.140;8.904;2023-06-10T10:00:11;3.50;;;2.17;;
11854;SDS011;5987;53.140;8.904;2023-06-10T10:03:21;6.57;;;2.83;;
11854;SDS011;5987;53.140;8.904;2023-06-10T10:06:27;7.17;;;2.80;;
11854;SDS011;5987;53.140;8.904;2023-06-10T10:09:31;5.10;;;3.00;;
11854;SDS011;5987;53.140;8.904;2023-06-10T10:12:35;5.73;;;2.90;;
11854;SDS011;5987;53.140;8.904;2023-06-10T10:15:41;6.40;;;2.80;;
11854;SDS011;5987;53.140;8.904;2023-06-10T10:18:46;5.87;;;2.93;;
11854;SDS011;5987;53.140;8.904;2023-06-10T10:22:00;4.77;;;2.50;;
11854;SDS011;5987;53.140;8.904;2023-06-10T10:25:11;6.53;;;2.50;;
11854;SDS011;5987;53.140;8.904;2023-06-10T10:28:20;5.77;;;2.70;;
11854;SDS011;5987;53.140;8.904;2023-06-10T10:31:28;5.77;;;2.47;;
11854;SDS011;5987;53.140;8.904;2023-06-10T10:34:40;6.23;;;2.87;;
11854;SDS011;5987;53.140;8.904;2023-06-10T10:37:54;6.43;;;2.63;;
11854;SDS011;5987;53.140;8.904;2023-06-10T10:40:58;6.23;;;2.73;;
11854;SDS011;5987;53.140;8.904;2023-06-10T10:44:03;4.57;;;2.33;;
11854;SDS011;5987;53.140;8.904;2023-06-10T10:47:11;5.43;;;2.37;;
11854;SDS011;5987;53.140;8.904;2023-06-10T10:50:19;6.57;;;2.30;;
11854;SDS011;5987;53.140;8.904;2023-06-10T10:53:25;9.97;;;3.03;;
11854;SDS011;5987;53.140;8.904;2023-06-10T10:56:28;6.37;;;2.00;;
11854;SDS011;5987;53.140;8.904;2023-06-10T10:59:42;6.47;;;2.73;;
11854;SDS011;5987;53.140;8.904;2023-06-10T11:02:58;6.07;;;2.40;;
11854;SDS011;5987;53.140;8.904;2023-06-10T11:06:12;6.20;;;2.50;;
11854;SDS011;5987;53.140;8.904;2023-06-10T11:09:28;7.37;;;2.37;;
11854;SDS011;5987;53.140;8.904;2023-06-10T11:12:41;5.43;;;2.23;;
11854;SDS011;5987;53.140;8.904;2023-06-10T11:15:56;5.47;;;2.37;;
11854;SDS011;5987;53.140;8.904;2023-06-10T11:19:01;3.70;;;2.30;;
11854;SDS011;5987;53.140;8.904;2023-06-10T11:22:05;6.30;;;2.57;;
11854;SDS011;5987;53.140;8.904;2023-06-10T11:25:14;5.47;;;2.27;;
11854;SDS011;5987;53.140;8.904;2023-06-10T11:28:18;7.77;;;2.23;;
11854;SDS011;5987;53.140;8.904;2023-06-10T11:31:23;8.33;;;2.13;;
11854;SDS011;5987;53.140;8.904;2023-06-10T11:34:28;8.53;;;2.47;;
11854;SDS011;5987;53.140;8.904;2023-06-10T11:37:32;3.57;;;2.07;;
11854;SDS011;5987;53.140;8.904;2023-06-10T11:40:37;3.57;;;2.17;;
11854;SDS011;5987;53.140;8.904;2023-06-10T11:43:42;8.47;;;2.40;;
11854;SDS011;5987;53.140;8.904;2023-06-10T11:46:47;2.90;;;1.87;;
11854;SDS011;5987;53.140;8.904;2023-06-10T11:49:55;7.53;;;2.40;;
11854;SDS011;5987;53.140;8.904;2023-06-10T11:53:00;7.47;;;1.77;;
11854;SDS011;5987;53.140;8.904;2023-06-10T11:56:06;5.03;;;2.43;;
11854;SDS011;5987;53.140;8.904;2023-06-10T11:59:09;4.10;;;1.73;;
11854;SDS011;5987;53.140;8.904;2023-06-10T12:02:14;6.03;;;1.90;;
11854;SDS011;5987;53.140;8.904;2023-06-10T12:05:19;5.70;;;2.40;;
11854;SDS011;5987;53.140;8.904;2023-06-10T12:08:26;3.57;;;1.83;;
11854;SDS011;5987;53.140;8.904;2023-06-10T12:11:31;4.47;;;2.10;;
11854;SDS011;5987;53.140;8.904;2023-06-10T12:14:55;3.03;;;1.50;;
11854;SDS011;5987;53.140;8.904;2023-06-10T12:18:00;2.87;;;1.70;;
11854;SDS011;5987;53.140;8.904;2023-06-10T12:21:14;4.60;;;1.87;;
11854;SDS011;5987;53.140;8.904;2023-06-10T12:24:20;2.40;;;1.77;;
11854;SDS011;5987;53.140;8.904;2023-06-10T12:27:26;2.67;;;1.60;;
11854;SDS011;5987;53.140;8.904;2023-06-10T12:30:32;4.40;;;2.17;;
11854;SDS011;5987;53.140;8.904;2023-06-10T12:33:35;3.27;;;1.97;;
11854;SDS011;5987;53.140;8.904;2023-06-10T12:36:39;3.90;;;2.07;;
11854;SDS011;5987;53.140;8.904;2023-06-10T12:39:51;4.20;;;1.80;;
11854;SDS011;5987;53.140;8.904;2023-06-10T12:42:57;5.77;;;2.10;;
11854;SDS011;5987;53.140;8.904;2023-06-10T12:46:08;4.43;;;1.70;;
11854;SDS011;5987;53.140;8.904;2023-06-10T12:49:24;4.43;;;2.03;;
11854;SDS011;5987;53.140;8.904;2023-06-10T12:52:27;5.63;;;1.90;;
11854;SDS011;5987;53.140;8.904;2023-06-10T12:55:31;3.27;;;2.23;;
11854;SDS011;5987;53.140;8.904;2023-06-10T12:58:39;4.13;;;2.03;;
11854;SDS011;5987;53.140;8.904;2023-06-10T13:01:49;2.27;;;1.67;;
11854;SDS011;5987;53.140;8.904;2023-06-10T13:04:54;5.23;;;2.10;;
11854;SDS011;5987;53.140;8.904;2023-06-10T13:07:58;4.10;;;2.13;;
11854;SDS011;5987;53.140;8.904;2023-06-10T13:11:03;3.87;;;2.47;;
11854;SDS011;5987;53.140;8.904;2023-06-10T13:14:08;8.57;;;2.60;;
11854;SDS011;5987;53.140;8.904;2023-06-10T13:17:13;3.30;;;2.40;;
11854;SDS011;5987;53.140;8.904;2023-06-10T13:20:17;5.07;;;2.30;;
11854;SDS011;5987;53.140;8.904;2023-06-10T13:23:22;4.43;;;2.50;;
11854;SDS011;5987;53.140;8.904;2023-06-10T13:26:27;5.30;;;2.30;;
11854;SDS011;5987;53.140;8.904;2023-06-10T13:29:32;5.87;;;2.70;;
11854;SDS011;5987;53.140;8.904;2023-06-10T13:32:35;4.43;;;2.57;;
11854;SDS011;5987;53.140;8.904;2023-06-10T13:35:39;5.43;;;2.53;;
11854;SDS011;5987;53.140;8.904;2023-06-10T13:38:44;4.50;;;2.63;;
11854;SDS011;5987;53.140;8.904;2023-06-10T13:41:49;3.70;;;2.33;;
11854;SDS011;5987;53.140;8.904;2023-06-10T13:44:55;5.17;;;2.73;;
11854;SDS011;5987;53.140;8.904;2023-06-10T13:47:59;4.90;;;2.63;;
11854;SDS011;5987;53.140;8.904;2023-06-10T13:51:03;5.47;;;3.33;;
11854;SDS011;5987;53.140;8.904;2023-06-10T13:54:07;5.27;;;2.63;;
11854;SDS011;5987;53.140;8.904;2023-06-10T13:57:11;6.40;;;2.83;;
11854;SDS011;5987;53.140;8.904;2023-06-10T14:00:17;5.37;;;2.80;;
11854;SDS011;5987;53.140;8.904;2023-06-10T14:03:21;3.90;;;2.80;;
11854;SDS011;5987;53.140;8.904;2023-06-10T14:06:25;6.20;;;2.90;;
11854;SDS011;5987;53.140;8.904;2023-06-10T14:09:29;8.20;;;2.83;;
11854;SDS011;5987;53.140;8.904;2023-06-10T14:12:33;4.30;;;3.20;;
11854;SDS011;5987;53.140;8.904;2023-06-10T14:15:38;4.17;;;2.93;;
11854;SDS011;5987;53.140;8.904;2023-06-10T14:18:41;5.77;;;3.13;;
11854;SDS011;5987;53.140;8.904;2023-06-10T14:21:45;7.63;;;3.37;;
11854;SDS011;5987;53.140;8.904;2023-06-10T14:24:51;4.70;;;3.40;;
11854;SDS011;5987;53.140;8.904;2023-06-10T14:27:54;4.43;;;3.10;;
11854;SDS011;5987;53.140;8.904;2023-06-10T14:31:00;4.57;;;3.00;;
11854;SDS011;5987;53.140;8.904;2023-06-10T14:34:04;4.63;;;2.57;;
11854;SDS011;5987;53.140;8.904;2023-06-10T14:37:10;9.57;;;3.53;;
11854;SDS011;5987;53.140;8.904;2023-06-10T14:40:14;7.17;;;3.33;;
11854;SDS011;5987;53.140;8.904;2023-06-10T14:43:18;3.93;;;2.83;;
11854;SDS011;5987;53.140;8.904;2023-06-10T14:46:23;6.77;;;3.70;;
11854;SDS011;5987;53.140;8.904;2023-06-10T14:49:26;8.67;;;3.60;;
11854;SDS011;5987;53.140;8.904;2023-06-10T14:52:30;5.53;;;4.00;;
11854;SDS011;5987;53.140;8.904;2023-06-10T14:55:33;6.97;;;4.07;;
11854;SDS011;5987;53.140;8.904;2023-06-10T14:58:37;5.60;;;3.60;;
11854;SDS011;5987;53.140;8.904;2023-06-10T15:01:42;5.90;;;3.60;;
11854;SDS011;5987;53.140;8.904;2023-06-10T15:04:46;4.13;;;3.23;;
11854;SDS011;5987;53.140;8.904;2023-06-10T15:07:49;5.67;;;3.60;;
11854;SDS011;5987;53.140;8.904;2023-06-10T15:10:53;4.70;;;3.50;;
11854;SDS011;5987;53.140;8.904;2023-06-10T15:13:58;4.50;;;3.20;;
11854;SDS011;5987;53.140;8.904;2023-06-10T15:17:04;4.00;;;3.50;;
11854;SDS011;5987;53.140;8.904;2023-06-10T15:20:08;6.00;;;3.73;;
11854;SDS011;5987;53.140;8.904;2023-06-10T15:23:13;8.73;;;4.50;;
11854;SDS011;5987;53.140;8.904;2023-06-10T15:26:16;7.60;;;4.63;;
11854;SDS011;5987;53.140;8.904;2023-06-10T15:29:20;7.27;;;4.33;;
11854;SDS011;5987;53.140;8.904;2023-06-10T15:32:25;7.90;;;4.07;;
11854;SDS011;5987;53.140;8.904;2023-06-10T15:35:28;7.53;;;3.40;;
11854;SDS011;5987;53.140;8.904;2023-06-10T15:38:33;6.60;;;4.10;;
11854;SDS011;5987;53.140;8.904;2023-06-10T15:41:36;7.50;;;4.73;;
11854;SDS011;5987;53.140;8.904;2023-06-10T15:44:40;6.40;;;4.10;;
11854;SDS011;5987;53.140;8.904;2023-06-10T15:47:45;6.00;;;4.50;;
11854;SDS011;5987;53.140;8.904;2023-06-10T15:50:48;5.23;;;4.00;;
11854;SDS011;5987;53.140;8.904;2023-06-10T15:53:52;7.47;;;4.43;;
11854;SDS011;5987;53.140;8.904;2023-06-10T15:56:56;5.77;;;4.23;;
11854;SDS011;5987;53.140;8.904;2023-06-10T15:59:59;7.70;;;4.67;;
11854;SDS011;5987;53.140;8.904;2023-06-10T16:03:06;6.63;;;5.10;;
11854;SDS011;5987;53.140;8.904;2023-06-10T16:06:10;7.57;;;5.00;;
11854;SDS011;5987;53.140;8.904;2023-06-10T16:09:17;5.13;;;4.37;;
11854;SDS011;5987;53.140;8.904;2023-06-10T16:12:20;5.53;;;4.67;;
11854;SDS011;5987;53.140;8.904;2023-06-10T16:15:24;14.87;;;11.10;;
11854;SDS011;5987;53.140;8.904;2023-06-10T16:18:29;9.87;;;5.10;;
11854;SDS011;5987;53.140;8.904;2023-06-10T16:21:33;6.07;;;4.83;;
11854;SDS011;5987;53.140;8.904;2023-06-10T16:24:38;10.57;;;4.57;;
11854;SDS011;5987;53.140;8.904;2023-06-10T16:27:42;5.43;;;4.90;;
11854;SDS011;5987;53.140;8.904;2023-06-10T16:30:45;6.57;;;5.80;;
11854;SDS011;5987;53.140;8.904;2023-06-10T16:33:50;11.03;;;5.50;;
11854;SDS011;5987;53.140;8.904;2023-06-10T16:36:54;12.93;;;5.90;;
11854;SDS011;5987;53.140;8.904;2023-06-10T16:39:57;6.17;;;4.80;;
11854;SDS011;5987;53.140;8.904;2023-06-10T16:43:01;7.77;;;5.33;;
11854;SDS011;5987;53.140;8.904;2023-06-10T16:46:05;5.93;;;4.27;;
11854;SDS011;5987;53.140;8.904;2023-06-10T16:49:10;14.20;;;12.00;;
11854;SDS011;5987;53.140;8.904;2023-06-10T16:52:13;6.13;;;5.47;;
11854;SDS011;5987;53.140;8.904;2023-06-10T16:55:17;5.93;;;5.07;;
11854;SDS011;5987;53.140;8.904;2023-06-10T16:58:21;7.87;;;5.17;;
11854;SDS011;5987;53.140;8.904;2023-06-10T17:01:24;7.30;;;5.37;;
11854;SDS011;5987;53.140;8.904;2023-06-10T17:04:30;6.57;;;4.43;;
11854;SDS011;5987;53.140;8.904;2023-06-10T17:07:34;7.63;;;5.30;;
11854;SDS011;5987;53.140;8.904;2023-06-10T17:10:38;7.23;;;5.07;;
11854;SDS011;5987;53.140;8.904;2023-06-10T17:13:42;6.97;;;5.27;;
11854;SDS011;5987;53.140;8.904;2023-06-10T17:16:48;6.10;;;4.20;;
11854;SDS011;5987;53.140;8.904;2023-06-10T17:19:54;5.83;;;5.17;;
11854;SDS011;5987;53.140;8.904;2023-06-10T17:22:59;7.83;;;4.53;;
11854;SDS011;5987;53.140;8.904;2023-06-10T17:26:03;11.63;;;5.40;;
11854;SDS011;5987;53.140;8.904;2023-06-10T17:29:08;7.13;;;4.67;;
11854;SDS011;5987;53.140;8.904;2023-06-10T17:32:11;8.83;;;4.37;;
11854;SDS011;5987;53.140;8.904;2023-06-10T17:35:16;6.60;;;4.80;;
11854;SDS011;5987;53.140;8.904;2023-06-10T17:38:20;7.20;;;4.50;;
11854;SDS011;5987;53.140;8.904;2023-06-10T17:41:25;6.83;;;5.10;;
11854;SDS011;5987;53.140;8.904;2023-06-10T17:44:28;11.10;;;4.73;;
11854;SDS011;5987;53.140;8.904;2023-06-10T17:47:34;10.63;;;4.90;;
11854;SDS011;5987;53.140;8.904;2023-06-10T17:50:39;5.40;;;4.90;;
11854;SDS011;5987;53.140;8.904;2023-06-10T17:53:43;6.17;;;4.90;;
11854;SDS011;5987;53.140;8.904;2023-06-10T17:56:48;8.63;;;5.20;;
11854;SDS011;5987;53.140;8.904;2023-06-10T17:59:52;7.67;;;5.10;;
11854;SDS011;5987;53.140;8.904;2023-06-10T18:02:55;6.33;;;4.80;;
11854;SDS011;5987;53.140;8.904;2023-06-10T18:06:01;6.50;;;4.47;;
11854;SDS011;5987;53.140;8.904;2023-06-10T18:09:05;9.80;;;4.20;;
11854;SDS011;5987;53.140;8.904;2023-06-10T18:12:13;7.83;;;3.97;;
11854;SDS011;5987;53.140;8.904;2023-06-10T18:15:17;5.03;;;3.57;;
11854;SDS011;5987;53.140;8.904;2023-06-10T18:18:21;7.57;;;3.70;;
11854;SDS011;5987;53.140;8.904;2023-06-10T18:21:26;5.80;;;3.80;;
11854;SDS011;5987;53.140;8.904;2023-06-10T18:24:29;6.73;;;3.67;;
11854;SDS011;5987;53.140;8.904;2023-06-10T18:27:33;10.10;;;4.10;;
11854;SDS011;5987;53.140;8.904;2023-06-10T18:30:37;8.47;;;3.30;;
11854;SDS011;5987;53.140;8.904;2023-06-10T18:33:41;6.43;;;3.40;;
11854;SDS011;5987;53.140;8.904;2023-06-10T18:36:46;3.87;;;3.47;;
11854;SDS011;5987;53.140;8.904;2023-06-10T18:39:49;8.93;;;3.90;;
11854;SDS011;5987;53.140;8.904;2023-06-10T18:42:53;7.57;;;3.57;;
11854;SDS011;5987;53.140;8.904;2023-06-10T18:45:57;6.93;;;4.20;;
11854;SDS011;5987;53.140;8.904;2023-06-10T18:49:01;8.87;;;4.30;;